Time;durP1;ratioP1;P1;durP2;ratioP2;P2;SDS_P1;SDS_P2;PMS_P1;PMS_P2;Temp;Humidity;BMP_temperature;BMP_pressure;BME280_temperature;BME280_humidity;BME280_pressure;Samples;Min_cycle;Max_cycle;Signal;HPM_P1;HPM_P2
2021/01/11 00:02:23;;;;;;;3.50;1.88;;;;;;;;;;5062868;28;20342;-53
2021/01/11 00:04:49;;;;;;;2.83;2.17;;;;;;;;;;5058464;28;20532;-55
2021/01/11 00:07:14;;;;;;;9.00;2.17;;;;;;;;;;5058594;28;20033;-55
2021/01/11 00:09:39;;;;;;;5.65;2.58;;;;;;;;;;5059902;28;20032;-52
2021/01/11 00:12:06;;;;;;;4.65;1.33;;;;;;;;;;5057249;28;20482;-50
2021/01/11 00:14:31;;;;;;;2.13;1.48;;;;;;;;;;5060509;28;20031;-54
2021/01/11 00:16:57;;;;;;;5.93;2.80;;;;;;;;;;5057354;28;20044;-54
2021/01/11 00:19:22;;;;;;;3.90;2.47;;;;;;;;;;5059281;28;20021;-51
2021/01/11 00:21:48;;;;;;;9.27;2.67;;;;;;;;;;5057180;28;20441;-54
2021/01/11 00:24:13;;;;;;;4.30;2.92;;;;;;;;;;5060814;28;20086;-53
2021/01/11 00:26:38;;;;;;;4.57;2.38;;;;;;;;;;5059422;28;20465;-54
2021/01/11 00:29:04;;;;;;;4.95;2.22;;;;;;;;;;5056505;28;20029;-55
2021/01/11 00:31:29;;;;;;;3.30;1.98;;;;;;;;;;5060055;28;20429;-53
2021/01/11 00:33:54;;;;;;;5.22;2.95;;;;;;;;;;5056424;28;20032;-51
2021/01/11 00:36:20;;;;;;;3.95;2.03;;;;;;;;;;5059808;28;20363;-51
2021/01/11 00:38:46;;;;;;;11.25;2.97;;;;;;;;;;5061221;28;20029;-55
2021/01/11 00:41:21;;;;;;;3.72;1.77;;;;;;;;;;5055941;28;20098;-51
2021/01/11 00:43:47;;;;;;;6.20;3.10;;;;;;;;;;5061211;28;20501;-55
2021/01/11 00:46:28;;;;;;;1.73;1.35;;;;;;;;;;5060418;28;20049;-53
2021/01/11 00:48:54;;;;;;;9.80;3.17;;;;;;;;;;5055819;28;20051;-54
2021/01/11 00:51:19;;;;;;;4.90;2.30;;;;;;;;;;5061266;28;20028;-55
2021/01/11 00:53:44;;;;;;;3.72;1.17;;;;;;;;;;5056572;28;20534;-53
2021/01/11 00:56:17;;;;;;;5.28;2.85;;;;;;;;;;5054412;28;20075;-52
2021/01/11 00:58:43;;;;;;;10.95;3.28;;;;;;;;;;5058444;28;20039;-53
2021/01/11 01:01:12;;;;;;;7.57;2.45;;;;;;;;;;5059195;28;20021;-52
2021/01/11 01:03:38;;;;;;;11.73;4.07;;;;;;;;;;5064979;28;20020;-54
2021/01/11 01:06:04;;;;;;;14.10;3.88;;;;;;;;;;5056194;28;20025;-55
2021/01/11 01:08:30;;;;;;;2.35;1.60;;;;;;;;;;5061320;28;20040;-52
2021/01/11 01:10:56;;;;;;;14.85;4.15;;;;;;;;;;5060484;28;20066;-55
2021/01/11 01:13:21;;;;;;;6.55;3.90;;;;;;;;;;5059319;28;20041;-54
2021/01/11 01:15:46;;;;;;;5.22;2.35;;;;;;;;;;5056825;28;20108;-54
2021/01/11 01:18:11;;;;;;;5.90;1.77;;;;;;;;;;5056971;28;20043;-55
2021/01/11 01:20:37;;;;;;;2.63;2.05;;;;;;;;;;5062713;28;20025;-52
2021/01/11 01:23:02;;;;;;;7.40;3.75;;;;;;;;;;5056111;28;20035;-54
2021/01/11 01:25:32;;;;;;;8.18;3.67;;;;;;;;;;5058620;28;20036;-55
2021/01/11 01:27:58;;;;;;;6.63;3.28;;;;;;;;;;5055671;28;20081;-52
2021/01/11 01:30:23;;;;;;;5.68;4.72;;;;;;;;;;5057702;28;20060;-52
2021/01/11 01:32:48;;;;;;;4.40;3.17;;;;;;;;;;5057277;28;20413;-55
2021/01/11 01:35:13;;;;;;;6.15;4.22;;;;;;;;;;5060691;28;20032;-53
2021/01/11 01:37:39;;;;;;;9.73;4.70;;;;;;;;;;5090242;28;20025;-51
2021/01/11 01:40:05;;;;;;;9.43;4.28;;;;;;;;;;5060773;28;20032;-52
2021/01/11 01:42:30;;;;;;;6.30;3.35;;;;;;;;;;5058475;28;20523;-50
2021/01/11 01:44:55;;;;;;;11.18;3.60;;;;;;;;;;5055525;28;20045;-53
2021/01/11 01:47:21;;;;;;;12.77;6.07;;;;;;;;;;5059169;28;20024;-50
2021/01/11 01:49:46;;;;;;;12.13;7.13;;;;;;;;;;5055723;28;20477;-49
2021/01/11 01:52:11;;;;;;;12.60;5.50;;;;;;;;;;5056510;28;20693;-50
2021/01/11 01:54:40;;;;;;;8.65;3.67;;;;;;;;;;5058272;28;20032;-53
2021/01/11 01:57:05;;;;;;;7.88;4.45;;;;;;;;;;5054183;28;20044;-54
2021/01/11 01:59:31;;;;;;;5.82;3.58;;;;;;;;;;5058747;28;20531;-54
2021/01/11 02:01:58;;;;;;;6.75;3.00;;;;;;;;;;5059103;28;20033;-52
2021/01/11 02:04:23;;;;;;;6.50;3.78;;;;;;;;;;5057798;28;20383;-55
2021/01/11 02:07:05;;;;;;;11.25;6.00;;;;;;;;;;5056514;28;20036;-54
2021/01/11 02:09:39;;;;;;;24.08;6.13;;;;;;;;;;5061418;28;20727;-52
2021/01/11 02:12:10;;;;;;;14.38;5.90;;;;;;;;;;5068316;28;20035;-54
2021/01/11 02:14:59;;;;;;;8.43;5.70;;;;;;;;;;5064018;28;20037;-55
2021/01/11 02:17:57;;;;;;;7.65;4.80;;;;;;;;;;5062008;28;20047;-50
2021/01/11 02:20:41;;;;;;;6.20;4.13;;;;;;;;;;5062207;28;20491;-53
2021/01/11 02:23:38;;;;;;;15.25;7.40;;;;;;;;;;5059252;28;20021;-53
2021/01/11 02:26:06;;;;;;;8.52;6.22;;;;;;;;;;5042458;28;20041;-49
2021/01/11 02:28:32;;;;;;;8.80;3.97;;;;;;;;;;5060459;28;20124;-52
2021/01/11 02:30:58;;;;;;;6.18;4.15;;;;;;;;;;5063551;28;20554;-53
2021/01/11 02:33:23;;;;;;;9.98;6.05;;;;;;;;;;5061615;28;20440;-51
2021/01/11 02:35:49;;;;;;;19.20;6.03;;;;;;;;;;5062621;28;20037;-52
2021/01/11 02:38:16;;;;;;;9.30;6.28;;;;;;;;;;5062987;28;20115;-48
2021/01/11 02:40:42;;;;;;;4.63;2.85;;;;;;;;;;5061200;28;20037;-52
2021/01/11 02:43:07;;;;;;;5.35;2.47;;;;;;;;;;5063593;28;20035;-52
2021/01/11 02:45:32;;;;;;;3.65;2.30;;;;;;;;;;5060191;28;20128;-53
2021/01/11 02:48:04;;;;;;;6.88;3.78;;;;;;;;;;5095709;28;20035;-51
2021/01/11 02:50:29;;;;;;;;;;;;;;;;;;5062488;28;20040;-52
2021/01/11 02:52:57;;;;;;;4.55;2.50;;;;;;;;;;5059215;28;19920;-51
2021/01/11 02:55:25;;;;;;;4.93;2.75;;;;;;;;;;5060719;28;20414;-50
2021/01/11 02:57:53;;;;;;;7.93;2.72;;;;;;;;;;5059116;28;20044;-50
2021/01/11 03:00:20;;;;;;;6.25;4.57;;;;;;;;;;5065630;28;20044;-50
2021/01/11 03:02:46;;;;;;;7.00;4.85;;;;;;;;;;5060878;28;20016;-50
2021/01/11 03:05:12;;;;;;;7.60;3.25;;;;;;;;;;5058929;28;20305;-52
2021/01/11 03:07:37;;;;;;;15.23;5.68;;;;;;;;;;5062742;28;20509;-52
2021/01/11 03:10:03;;;;;;;4.47;3.20;;;;;;;;;;5063000;28;20111;-50
2021/01/11 03:12:28;;;;;;;7.45;1.77;;;;;;;;;;5060361;28;20463;-51
2021/01/11 03:14:53;;;;;;;3.22;2.67;;;;;;;;;;5061260;28;20020;-53
2021/01/11 03:17:18;;;;;;;19.10;3.80;;;;;;;;;;5060364;28;20048;-52
2021/01/11 03:19:44;;;;;;;11.68;5.38;;;;;;;;;;5062262;28;20024;-52
2021/01/11 03:22:09;;;;;;;9.23;2.58;;;;;;;;;;5062068;28;20467;-52
2021/01/11 03:24:34;;;;;;;4.40;3.13;;;;;;;;;;5059605;28;20391;-52
2021/01/11 03:27:00;;;;;;;13.43;6.40;;;;;;;;;;5062772;28;20029;-50
2021/01/11 03:29:26;;;;;;;6.30;5.03;;;;;;;;;;5062874;28;20043;-53
2021/01/11 03:31:51;;;;;;;5.03;2.03;;;;;;;;;;5058161;28;20090;-52
2021/01/11 03:34:16;;;;;;;10.95;5.18;;;;;;;;;;5061400;28;20030;-52
2021/01/11 03:36:42;;;;;;;13.00;5.72;;;;;;;;;;5060528;28;20052;-51
2021/01/11 03:39:08;;;;;;;3.88;2.75;;;;;;;;;;5062767;28;20076;-52
2021/01/11 03:41:34;;;;;;;11.77;5.90;;;;;;;;;;5062401;28;20052;-49
2021/01/11 03:44:00;;;;;;;12.77;6.43;;;;;;;;;;5063717;28;20466;-50
2021/01/11 03:46:28;;;;;;;10.30;6.30;;;;;;;;;;5057307;28;20060;-50
2021/01/11 03:48:53;;;;;;;17.48;6.32;;;;;;;;;;5058257;28;20046;-51
2021/01/11 03:51:18;;;;;;;7.72;5.50;;;;;;;;;;5062106;28;20028;-53
2021/01/11 03:53:44;;;;;;;6.90;5.03;;;;;;;;;;5058038;28;20033;-54
2021/01/11 03:56:10;;;;;;;13.80;8.38;;;;;;;;;;5060509;28;20048;-50
2021/01/11 03:58:35;;;;;;;9.10;6.57;;;;;;;;;;5058744;28;20028;-51
2021/01/11 04:01:01;;;;;;;10.93;8.13;;;;;;;;;;5062167;28;20139;-51
2021/01/11 04:03:26;;;;;;;7.18;4.97;;;;;;;;;;5060823;28;20357;-51
2021/01/11 04:05:52;;;;;;;9.18;7.07;;;;;;;;;;5057954;28;20153;-50
2021/01/11 04:08:17;;;;;;;9.25;7.78;;;;;;;;;;5058509;28;20029;-54
2021/01/11 04:10:43;;;;;;;12.48;6.47;;;;;;;;;;5057567;28;20489;-54
2021/01/11 04:13:08;;;;;;;6.70;4.25;;;;;;;;;;5058959;28;20382;-48
2021/01/11 04:15:33;;;;;;;19.75;7.80;;;;;;;;;;5058723;28;20041;-55
2021/01/11 04:17:59;;;;;;;12.60;7.13;;;;;;;;;;5061916;28;20028;-53
2021/01/11 04:20:24;;;;;;;21.83;9.15;;;;;;;;;;5059323;28;20035;-52
2021/01/11 04:22:50;;;;;;;8.07;3.80;;;;;;;;;;5059224;28;20054;-48
2021/01/11 04:25:15;;;;;;;11.77;4.55;;;;;;;;;;5060734;28;20026;-50
2021/01/11 04:27:40;;;;;;;4.22;3.10;;;;;;;;;;5062435;28;20021;-49
2021/01/11 04:30:06;;;;;;;10.45;6.30;;;;;;;;;;5061533;28;20024;-48
2021/01/11 04:32:34;;;;;;;4.72;2.83;;;;;;;;;;5057958;28;20032;-55
2021/01/11 04:35:00;;;;;;;11.13;7.25;;;;;;;;;;5056276;28;20538;-50
2021/01/11 04:37:25;;;;;;;15.82;5.55;;;;;;;;;;5059168;28;20112;-50
2021/01/11 04:39:50;;;;;;;12.32;6.68;;;;;;;;;;5057882;28;20024;-47
2021/01/11 04:42:19;;;;;;;6.82;3.05;;;;;;;;;;5057723;28;20466;-50
2021/01/11 04:44:45;;;;;;;10.50;4.05;;;;;;;;;;5057947;28;20052;-53
2021/01/11 04:47:11;;;;;;;11.32;5.60;;;;;;;;;;5056966;28;20037;-55
2021/01/11 04:49:37;;;;;;;6.50;3.38;;;;;;;;;;5059198;28;20028;-53
2021/01/11 04:52:04;;;;;;;6.38;4.32;;;;;;;;;;5056792;28;20044;-54
2021/01/11 04:54:30;;;;;;;19.35;8.13;;;;;;;;;;5059145;28;20050;-52
2021/01/11 04:56:59;;;;;;;14.20;4.53;;;;;;;;;;5056328;28;20079;-51
2021/01/11 04:59:26;;;;;;;17.08;5.13;;;;;;;;;;5058679;28;20051;-52
2021/01/11 05:01:51;;;;;;;19.33;7.18;;;;;;;;;;5060417;28;20075;-52
2021/01/11 05:04:17;;;;;;;15.30;8.05;;;;;;;;;;5060524;28;20052;-49
2021/01/11 05:06:46;;;;;;;11.10;5.32;;;;;;;;;;5061451;28;20090;-53
2021/01/11 05:09:15;;;;;;;18.90;7.90;;;;;;;;;;5059695;28;20400;-49
2021/01/11 05:11:41;;;;;;;6.45;4.43;;;;;;;;;;5061736;28;20032;-52
2021/01/11 05:14:06;;;;;;;10.57;4.53;;;;;;;;;;5060978;28;20486;-52
2021/01/11 05:16:31;;;;;;;10.77;7.75;;;;;;;;;;5060673;28;20119;-50
2021/01/11 05:19:17;;;;;;;11.00;4.13;;;;;;;;;;5062442;28;20020;-49
2021/01/11 05:21:44;;;;;;;14.85;5.70;;;;;;;;;;5059733;28;20190;-49
2021/01/11 05:24:28;;;;;;;9.77;6.25;;;;;;;;;;5059168;28;20440;-49
2021/01/11 05:26:55;;;;;;;11.93;6.13;;;;;;;;;;5062205;28;20115;-50
2021/01/11 05:29:21;;;;;;;8.05;5.75;;;;;;;;;;5058200;28;20017;-50
2021/01/11 05:31:56;;;;;;;13.30;6.10;;;;;;;;;;5060449;28;20028;-54
2021/01/11 05:34:22;;;;;;;9.73;6.93;;;;;;;;;;5060354;28;20417;-51
2021/01/11 05:36:48;;;;;;;15.73;8.00;;;;;;;;;;5065025;28;20105;-49
2021/01/11 05:39:13;;;;;;;9.32;5.55;;;;;;;;;;5061834;28;20063;-50
2021/01/11 05:41:41;;;;;;;11.98;4.90;;;;;;;;;;5061248;28;20050;-49
2021/01/11 05:44:09;;;;;;;23.08;5.68;;;;;;;;;;5058310;28;20071;-52
2021/01/11 05:46:35;;;;;;;9.65;5.63;;;;;;;;;;5062702;28;20584;-50
2021/01/11 05:49:04;;;;;;;13.50;8.25;;;;;;;;;;5062481;28;20028;-51
2021/01/11 05:51:30;;;;;;;13.38;8.57;;;;;;;;;;5062013;28;20028;-53
2021/01/11 05:53:56;;;;;;;18.15;9.65;;;;;;;;;;5060786;28;20060;-51
2021/01/11 05:56:22;;;;;;;12.02;7.43;;;;;;;;;;5057994;28;20033;-56
2021/01/11 05:59:06;;;;;;;6.78;5.13;;;;;;;;;;5061072;28;20043;-53
2021/01/11 06:01:32;;;;;;;14.40;6.53;;;;;;;;;;5062794;28;20092;-53
2021/01/11 06:03:58;;;;;;;17.42;6.65;;;;;;;;;;5065519;28;20028;-53
2021/01/11 06:06:24;;;;;;;8.43;6.50;;;;;;;;;;5066563;28;20025;-53
2021/01/11 06:08:49;;;;;;;10.00;6.70;;;;;;;;;;5064869;28;20104;-48
2021/01/11 06:11:17;;;;;;;9.00;5.13;;;;;;;;;;5066638;28;20103;-52
2021/01/11 06:13:46;;;;;;;3.85;3.10;;;;;;;;;;5064090;28;20048;-53
2021/01/11 06:16:12;;;;;;;12.25;5.18;;;;;;;;;;5063339;28;20037;-50
2021/01/11 06:18:37;;;;;;;8.90;5.65;;;;;;;;;;5067312;28;20017;-52
2021/01/11 06:21:02;;;;;;;9.60;7.82;;;;;;;;;;5066554;28;20032;-57
2021/01/11 06:23:28;;;;;;;10.10;5.22;;;;;;;;;;5065316;28;20383;-56
2021/01/11 06:25:53;;;;;;;7.38;5.25;;;;;;;;;;5064822;28;20103;-56
2021/01/11 06:28:29;;;;;;;13.80;7.70;;;;;;;;;;5064949;28;20451;-61
2021/01/11 06:31:08;;;;;;;21.63;10.77;;;;;;;;;;5060517;28;20475;-60
2021/01/11 06:33:34;;;;;;;26.40;10.63;;;;;;;;;;5059542;28;20111;-60
2021/01/11 06:35:59;;;;;;;12.85;7.88;;;;;;;;;;5061902;28;20351;-61
2021/01/11 06:38:25;;;;;;;10.18;6.47;;;;;;;;;;5057430;28;20025;-62
2021/01/11 06:40:54;;;;;;;11.13;6.10;;;;;;;;;;5059144;28;20037;-62
2021/01/11 06:43:21;;;;;;;10.63;6.40;;;;;;;;;;5056916;28;20032;-48
2021/01/11 06:45:47;;;;;;;19.30;6.00;;;;;;;;;;5059200;28;20464;-65
2021/01/11 06:48:13;;;;;;;9.82;6.80;;;;;;;;;;5057317;28;20025;-65
2021/01/11 06:50:39;;;;;;;10.73;7.63;;;;;;;;;;5062728;28;20036;-65
2021/01/11 06:53:05;;;;;;;18.95;7.68;;;;;;;;;;5063337;28;20102;-65
2021/01/11 06:55:30;;;;;;;9.70;4.20;;;;;;;;;;5064131;28;20063;-65
2021/01/11 06:57:59;;;;;;;7.25;3.40;;;;;;;;;;5058962;28;20726;-66
2021/01/11 07:00:32;;;;;;;8.25;4.65;;;;;;;;;;5060122;28;20533;-67
2021/01/11 07:02:57;;;;;;;9.43;4.40;;;;;;;;;;5058367;28;20024;-66
2021/01/11 07:05:38;;;;;;;7.00;4.47;;;;;;;;;;5059393;28;20036;-67
2021/01/11 07:08:03;;;;;;;13.20;4.80;;;;;;;;;;5058496;28;20036;-65
2021/01/11 07:10:28;;;;;;;6.32;3.38;;;;;;;;;;5060480;28;20463;-64
2021/01/11 07:13:23;;;;;;;6.47;3.97;;;;;;;;;;5062281;28;20115;-64
2021/01/11 07:15:51;;;;;;;9.10;3.05;;;;;;;;;;5057018;28;20062;-65
2021/01/11 07:18:34;;;;;;;11.23;4.07;;;;;;;;;;5054341;28;20479;-64
2021/01/11 07:21:09;;;;;;;7.95;5.07;;;;;;;;;;5058313;28;20458;-65
2021/01/11 07:23:34;;;;;;;20.85;6.03;;;;;;;;;;5063473;28;20043;-65
2021/01/11 07:26:00;;;;;;;14.65;6.07;;;;;;;;;;5060495;28;20467;-65
2021/01/11 07:28:25;;;;;;;15.30;7.53;;;;;;;;;;5059846;28;20082;-64
2021/01/11 07:30:50;;;;;;;9.38;6.80;;;;;;;;;;5060667;28;20187;-64
2021/01/11 07:33:16;;;;;;;14.07;4.85;;;;;;;;;;5056952;28;20471;-64
2021/01/11 07:35:41;;;;;;;15.82;7.97;;;;;;;;;;5064848;28;20044;-63
2021/01/11 07:38:13;;;;;;;17.33;7.95;;;;;;;;;;5064486;28;20021;-62
2021/01/11 07:40:38;;;;;;;;;;;;;;;;;;5077142;28;20055;-63
2021/01/11 07:43:03;;;;;;;17.33;8.00;;;;;;;;;;5067152;28;20457;-66
2021/01/11 07:45:28;;;;;;;12.70;6.72;;;;;;;;;;5065335;28;20052;-63
2021/01/11 07:47:54;;;;;;;8.82;4.63;;;;;;;;;;5063654;28;20111;-64
2021/01/11 07:50:20;;;;;;;6.53;4.32;;;;;;;;;;5058291;28;20017;-63
2021/01/11 07:52:47;;;;;;;9.70;5.65;;;;;;;;;;5061346;28;20017;-65
2021/01/11 07:55:13;;;;;;;19.73;7.10;;;;;;;;;;5066100;28;20425;-64
2021/01/11 07:57:39;;;;;;;10.55;6.28;;;;;;;;;;5064317;28;20031;-64
2021/01/11 08:00:06;;;;;;;12.00;7.70;;;;;;;;;;5061726;28;20059;-65
2021/01/11 08:02:31;;;;;;;13.50;8.23;;;;;;;;;;5063735;28;20465;-64
2021/01/11 08:04:57;;;;;;;9.02;6.10;;;;;;;;;;5059455;28;20131;-64
2021/01/11 08:07:27;;;;;;;7.80;4.00;;;;;;;;;;5061618;28;20367;-64
2021/01/11 08:09:54;;;;;;;13.13;5.20;;;;;;;;;;5060758;28;20116;-64
2021/01/11 08:12:20;;;;;;;14.73;7.32;;;;;;;;;;5061983;28;20040;-64
2021/01/11 08:14:46;;;;;;;17.70;5.32;;;;;;;;;;5061926;28;20021;-64
2021/01/11 08:17:13;;;;;;;16.13;5.53;;;;;;;;;;5060784;28;20040;-67
2021/01/11 08:19:42;;;;;;;22.77;6.13;;;;;;;;;;5062918;28;20139;-68
2021/01/11 08:22:09;;;;;;;8.18;4.82;;;;;;;;;;5060160;28;20041;-68
2021/01/11 08:24:35;;;;;;;20.13;8.15;;;;;;;;;;5061588;28;20032;-67
2021/01/11 08:27:07;;;;;;;7.28;4.00;;;;;;;;;;5065704;28;20508;-64
2021/01/11 08:29:42;;;;;;;22.75;7.53;;;;;;;;;;5061543;28;20025;-67
2021/01/11 08:32:11;;;;;;;11.25;5.90;;;;;;;;;;5058666;28;20124;-66
2021/01/11 08:34:37;;;;;;;8.88;4.57;;;;;;;;;;5062307;28;20032;-67
2021/01/11 08:37:21;;;;;;;8.18;4.70;;;;;;;;;;5065220;28;20086;-66
2021/01/11 08:39:57;;;;;;;10.90;6.07;;;;;;;;;;5063392;28;20021;-66
2021/01/11 08:42:22;;;;;;;8.95;6.07;;;;;;;;;;5063045;28;20291;-67
2021/01/11 08:44:48;;;;;;;13.68;7.10;;;;;;;;;;5063287;28;20132;-65
2021/01/11 08:47:13;;;;;;;12.75;5.07;;;;;;;;;;5064356;28;20364;-65
2021/01/11 08:49:55;;;;;;;5.88;2.58;;;;;;;;;;5061783;28;20470;-64
2021/01/11 08:52:25;;;;;;;10.15;4.78;;;;;;;;;;5062997;28;20028;-64
2021/01/11 08:54:50;;;;;;;12.02;7.05;;;;;;;;;;5056862;28;20075;-65
2021/01/11 08:57:15;;;;;;;15.77;5.07;;;;;;;;;;5060434;28;20135;-68
2021/01/11 08:59:50;;;;;;;9.02;4.60;;;;;;;;;;5058691;28;20032;-62
2021/01/11 09:02:25;;;;;;;7.47;5.22;;;;;;;;;;5066058;28;20082;-65
2021/01/11 09:04:51;;;;;;;8.18;4.45;;;;;;;;;;5065717;28;20020;-65
2021/01/11 09:07:24;;;;;;;9.18;4.97;;;;;;;;;;5066140;28;20039;-68
2021/01/11 09:09:49;;;;;;;9.77;6.10;;;;;;;;;;5065546;28;20500;-67
2021/01/11 09:12:14;;;;;;;12.55;6.97;;;;;;;;;;5065341;28;20033;-67
2021/01/11 09:15:06;;;;;;;21.48;7.82;;;;;;;;;;5064980;28;20111;-66
2021/01/11 09:17:31;;;;;;;;;;;;;;;;;;5056659;28;20057;-66
2021/01/11 09:20:00;;;;;;;23.57;8.80;;;;;;;;;;5058690;28;19968;-65
2021/01/11 09:22:37;;;;;;;11.27;6.38;;;;;;;;;;5057473;28;20580;-65
2021/01/11 09:25:07;;;;;;;16.23;6.35;;;;;;;;;;5055473;28;20475;-66
2021/01/11 09:27:33;;;;;;;13.25;6.13;;;;;;;;;;5057788;28;20028;-67
2021/01/11 09:29:58;;;;;;;23.38;11.48;;;;;;;;;;5060543;28;20044;-66
2021/01/11 09:32:23;;;;;;;20.65;8.20;;;;;;;;;;5054492;28;20072;-66
2021/01/11 09:34:49;;;;;;;23.20;10.55;;;;;;;;;;5060246;28;20439;-66
2021/01/11 09:37:15;;;;;;;18.55;7.68;;;;;;;;;;5054760;28;20048;-66
2021/01/11 09:39:41;;;;;;;13.38;5.65;;;;;;;;;;5058856;28;20108;-64
2021/01/11 09:42:06;;;;;;;5.70;4.22;;;;;;;;;;5059968;28;20585;-62
2021/01/11 09:44:32;;;;;;;19.65;7.30;;;;;;;;;;5056595;28;20032;-63
2021/01/11 09:46:59;;;;;;;8.35;5.65;;;;;;;;;;5057686;28;20042;-63
2021/01/11 09:49:26;;;;;;;14.85;6.32;;;;;;;;;;5057954;28;20056;-64
2021/01/11 09:51:51;;;;;;;18.98;8.30;;;;;;;;;;5054425;28;20573;-63
2021/01/11 09:54:17;;;;;;;7.13;4.72;;;;;;;;;;5059037;28;20040;-64
2021/01/11 09:56:42;;;;;;;19.25;6.50;;;;;;;;;;5056945;28;20628;-63
2021/01/11 09:59:08;;;;;;;8.98;6.13;;;;;;;;;;5061984;28;20029;-64
2021/01/11 10:01:37;;;;;;;13.18;6.40;;;;;;;;;;5057210;28;20040;-64
2021/01/11 10:04:03;;;;;;;7.50;6.05;;;;;;;;;;5058723;28;20040;-64
2021/01/11 10:06:35;;;;;;;13.15;8.55;;;;;;;;;;5056754;28;20607;-63
2021/01/11 10:09:00;;;;;;;14.82;4.25;;;;;;;;;;5058096;28;20103;-63
2021/01/11 10:11:25;;;;;;;12.52;6.50;;;;;;;;;;5057266;28;20028;-63
2021/01/11 10:13:51;;;;;;;5.28;4.15;;;;;;;;;;5061312;28;20541;-62
2021/01/11 10:16:16;;;;;;;17.60;8.07;;;;;;;;;;5057955;28;20037;-63
2021/01/11 10:18:41;;;;;;;19.23;5.25;;;;;;;;;;5057445;28;20032;-62
2021/01/11 10:21:07;;;;;;;22.77;6.07;;;;;;;;;;5057289;28;20735;-63
2021/01/11 10:23:32;;;;;;;9.57;5.88;;;;;;;;;;5058263;28;20777;-62
2021/01/11 10:25:57;;;;;;;13.40;5.20;;;;;;;;;;5058870;28;20111;-62
2021/01/11 10:28:22;;;;;;;8.73;3.88;;;;;;;;;;5057623;28;20451;-63
2021/01/11 10:30:48;;;;;;;5.95;3.67;;;;;;;;;;5059676;28;20065;-56
2021/01/11 10:33:13;;;;;;;16.70;7.05;;;;;;;;;;5061825;28;20462;-65
2021/01/11 10:35:39;;;;;;;8.85;5.18;;;;;;;;;;5059848;28;20076;-65
2021/01/11 10:38:04;;;;;;;8.45;5.30;;;;;;;;;;5061808;28;20032;-64
2021/01/11 10:40:30;;;;;;;22.73;8.10;;;;;;;;;;5059902;28;20025;-64
2021/01/11 10:42:55;;;;;;;11.25;4.80;;;;;;;;;;5063268;28;20048;-64
2021/01/11 10:45:20;;;;;;;8.88;5.88;;;;;;;;;;5059875;28;20091;-65
2021/01/11 10:47:46;;;;;;;14.75;5.90;;;;;;;;;;5060973;28;20041;-64
2021/01/11 10:50:11;;;;;;;17.15;5.53;;;;;;;;;;5060435;28;20021;-64
2021/01/11 10:52:36;;;;;;;18.23;8.13;;;;;;;;;;5061959;28;20035;-59
2021/01/11 10:55:02;;;;;;;7.13;5.60;;;;;;;;;;5059533;28;20029;-59
2021/01/11 10:57:27;;;;;;;21.95;7.88;;;;;;;;;;5060773;28;20033;-59
2021/01/11 10:59:52;;;;;;;16.33;6.20;;;;;;;;;;5059239;28;20371;-59
2021/01/11 11:02:17;;;;;;;16.30;7.30;;;;;;;;;;5059798;28;20422;-59
2021/01/11 11:04:45;;;;;;;16.60;7.25;;;;;;;;;;5060753;28;20028;-59
2021/01/11 11:07:12;;;;;;;13.93;7.72;;;;;;;;;;5058542;28;20024;-59
2021/01/11 11:09:37;;;;;;;23.52;9.85;;;;;;;;;;5061127;28;20064;-59
2021/01/11 11:12:02;;;;;;;12.57;8.32;;;;;;;;;;5060193;28;20056;-59
2021/01/11 11:14:28;;;;;;;13.10;7.00;;;;;;;;;;5062221;28;20115;-59
2021/01/11 11:16:53;;;;;;;12.30;6.53;;;;;;;;;;5060486;28;20043;-59
2021/01/11 11:19:18;;;;;;;13.45;6.90;;;;;;;;;;5060813;28;20086;-64
2021/01/11 11:21:44;;;;;;;17.80;14.35;;;;;;;;;;5061905;28;20441;-63
2021/01/11 11:24:09;;;;;;;14.75;9.60;;;;;;;;;;5059709;28;20040;-64
2021/01/11 11:26:34;;;;;;;23.08;13.32;;;;;;;;;;5062795;28;20661;-65
2021/01/11 11:29:00;;;;;;;10.98;7.47;;;;;;;;;;5059466;28;20029;-63
2021/01/11 11:31:25;;;;;;;8.30;6.30;;;;;;;;;;5061185;28;20025;-63
2021/01/11 11:33:50;;;;;;;11.27;7.03;;;;;;;;;;5060159;28;20394;-64
2021/01/11 11:36:18;;;;;;;9.90;6.43;;;;;;;;;;5060634;28;20447;-63
2021/01/11 11:38:44;;;;;;;17.33;9.65;;;;;;;;;;5061192;28;20035;-64
2021/01/11 11:41:09;;;;;;;27.40;11.95;;;;;;;;;;5058806;28;20434;-63
2021/01/11 11:43:34;;;;;;;16.27;11.68;;;;;;;;;;5062757;28;20105;-65
2021/01/11 11:45:59;;;;;;;17.13;8.80;;;;;;;;;;5060114;28;20056;-64
2021/01/11 11:48:25;;;;;;;18.58;10.25;;;;;;;;;;5060823;28;20403;-64
2021/01/11 11:50:50;;;;;;;11.05;6.47;;;;;;;;;;5063393;28;20044;-64
2021/01/11 11:53:17;;;;;;;12.20;6.15;;;;;;;;;;5061760;28;20104;-64
2021/01/11 11:55:43;;;;;;;23.65;9.68;;;;;;;;;;5061760;28;20041;-63
2021/01/11 11:58:08;;;;;;;10.30;6.78;;;;;;;;;;5062026;28;20031;-63
2021/01/11 12:00:33;;;;;;;8.73;6.03;;;;;;;;;;5060703;28;20421;-64
2021/01/11 12:02:58;;;;;;;12.52;5.78;;;;;;;;;;5064409;28;20470;-63
2021/01/11 12:05:24;;;;;;;21.15;6.53;;;;;;;;;;5062284;28;20060;-64
2021/01/11 12:07:49;;;;;;;23.77;7.53;;;;;;;;;;5063198;28;20075;-63
2021/01/11 12:10:15;;;;;;;12.95;9.35;;;;;;;;;;5063277;28;20020;-62
2021/01/11 12:12:40;;;;;;;9.95;7.10;;;;;;;;;;5093783;28;20077;-62
2021/01/11 12:15:06;;;;;;;9.98;6.00;;;;;;;;;;5063861;28;20029;-63
2021/01/11 12:17:32;;;;;;;16.17;9.30;;;;;;;;;;5060638;28;20032;-64
2021/01/11 12:19:57;;;;;;;22.88;7.57;;;;;;;;;;5096246;28;20111;-63
2021/01/11 12:22:22;;;;;;;15.45;8.18;;;;;;;;;;5062479;28;20450;-63
2021/01/11 12:24:48;;;;;;;14.73;8.40;;;;;;;;;;5061243;28;20033;-63
2021/01/11 12:27:13;;;;;;;7.35;5.32;;;;;;;;;;5063478;28;20734;-63
2021/01/11 12:29:38;;;;;;;7.10;6.35;;;;;;;;;;5060973;28;20143;-65
2021/01/11 12:32:04;;;;;;;16.65;5.20;;;;;;;;;;5063962;28;20032;-63
2021/01/11 12:34:33;;;;;;;16.75;6.43;;;;;;;;;;5061033;28;20042;-65
2021/01/11 12:36:59;;;;;;;16.45;7.20;;;;;;;;;;5063855;28;20079;-65
2021/01/11 12:39:24;;;;;;;21.48;13.48;;;;;;;;;;5062711;28;20063;-66
2021/01/11 12:41:49;;;;;;;22.17;13.93;;;;;;;;;;5066752;28;20028;-65
2021/01/11 12:44:17;;;;;;;25.88;9.60;;;;;;;;;;5065879;28;20530;-65
2021/01/11 12:46:43;;;;;;;16.27;7.40;;;;;;;;;;5065502;28;20513;-66
2021/01/11 12:49:08;;;;;;;18.85;10.13;;;;;;;;;;5094393;28;20028;-66
2021/01/11 12:51:33;;;;;;;17.60;10.27;;;;;;;;;;5066386;28;20059;-67
2021/01/11 12:53:59;;;;;;;16.63;5.65;;;;;;;;;;5064156;28;20745;-66
2021/01/11 12:56:25;;;;;;;10.35;6.45;;;;;;;;;;5066207;28;20055;-66
2021/01/11 12:58:51;;;;;;;17.55;7.90;;;;;;;;;;5066595;28;20020;-66
2021/01/11 13:01:17;;;;;;;13.10;8.82;;;;;;;;;;5062637;28;20020;-67
2021/01/11 13:03:42;;;;;;;9.80;8.05;;;;;;;;;;5065342;28;20026;-59
2021/01/11 13:06:07;;;;;;;14.73;8.27;;;;;;;;;;5057417;28;20706;-65
2021/01/11 13:08:33;;;;;;;13.15;8.65;;;;;;;;;;5060418;28;20029;-62
2021/01/11 13:10:58;;;;;;;16.30;6.03;;;;;;;;;;5062145;28;20032;-65
2021/01/11 13:13:23;;;;;;;11.00;7.07;;;;;;;;;;5055551;28;20032;-66
2021/01/11 13:15:49;;;;;;;11.23;8.50;;;;;;;;;;5057373;28;20116;-66
2021/01/11 13:18:15;;;;;;;24.65;5.15;;;;;;;;;;5059701;28;20513;-65
2021/01/11 13:20:40;;;;;;;13.52;6.32;;;;;;;;;;5058092;28;20876;-65
2021/01/11 13:23:06;;;;;;;13.27;10.85;;;;;;;;;;5060111;28;20108;-66
2021/01/11 13:25:31;;;;;;;12.23;8.55;;;;;;;;;;5057286;28;20123;-67
2021/01/11 13:27:57;;;;;;;11.32;7.72;;;;;;;;;;5059475;28;20086;-67
2021/01/11 13:30:22;;;;;;;6.53;5.85;;;;;;;;;;5058572;28;20040;-66
2021/01/11 13:32:48;;;;;;;20.70;10.73;;;;;;;;;;5058134;28;20032;-66
2021/01/11 13:35:13;;;;;;;19.85;9.90;;;;;;;;;;5060120;28;20481;-67
2021/01/11 13:37:39;;;;;;;16.55;11.13;;;;;;;;;;5056449;28;20491;-66
2021/01/11 13:40:05;;;;;;;13.13;10.55;;;;;;;;;;5061175;28;20016;-65
2021/01/11 13:42:33;;;;;;;28.27;10.98;;;;;;;;;;5056144;28;20033;-65
2021/01/11 13:44:59;;;;;;;8.48;6.60;;;;;;;;;;5056502;28;20053;-66
2021/01/11 13:47:24;;;;;;;8.05;5.65;;;;;;;;;;5061609;28;20465;-65
2021/01/11 13:49:52;;;;;;;10.02;6.57;;;;;;;;;;5059986;28;20519;-64
2021/01/11 13:52:17;;;;;;;12.68;5.05;;;;;;;;;;5060914;28;20024;-66
2021/01/11 13:54:43;;;;;;;19.88;10.23;;;;;;;;;;5055997;28;20035;-65
2021/01/11 13:57:08;;;;;;;17.95;6.45;;;;;;;;;;5058445;28;20036;-65
2021/01/11 13:59:33;;;;;;;16.00;10.82;;;;;;;;;;5056033;28;20410;-65
2021/01/11 14:02:00;;;;;;;17.98;7.57;;;;;;;;;;5057336;28;20059;-65
2021/01/11 14:04:25;;;;;;;21.10;10.45;;;;;;;;;;5059121;28;20109;-65
2021/01/11 14:06:51;;;;;;;11.05;6.50;;;;;;;;;;5062792;28;20036;-62
2021/01/11 14:09:16;;;;;;;9.75;5.95;;;;;;;;;;5060842;28;20039;-64
2021/01/11 14:11:47;;;;;;;15.10;7.90;;;;;;;;;;5061091;28;20670;-64
2021/01/11 14:14:12;;;;;;;18.75;16.17;;;;;;;;;;5062194;28;20698;-65
2021/01/11 14:16:37;;;;;;;17.90;14.55;;;;;;;;;;5060102;28;20045;-64
2021/01/11 14:19:03;;;;;;;27.10;16.38;;;;;;;;;;5062900;28;20728;-65
2021/01/11 14:21:28;;;;;;;17.67;13.20;;;;;;;;;;5060753;28;20029;-64
2021/01/11 14:23:59;;;;;;;15.23;11.20;;;;;;;;;;5061668;28;20742;-64
2021/01/11 14:26:29;;;;;;;14.05;10.65;;;;;;;;;;5061302;28;20086;-65
2021/01/11 14:28:54;;;;;;;24.88;13.27;;;;;;;;;;5061663;28;20404;-64
2021/01/11 14:31:19;;;;;;;12.52;10.48;;;;;;;;;;5061278;28;20125;-65
2021/01/11 14:33:45;;;;;;;22.63;16.90;;;;;;;;;;5060251;28;20048;-63
2021/01/11 14:36:12;;;;;;;26.25;18.77;;;;;;;;;;5062791;28;20554;-63